createdAt,value
2022-08-30T00:00:29.183Z,101430.09
2022-08-30T00:02:35.139Z,101424.84
2022-08-30T00:04:39.110Z,101431.03
2022-08-30T00:06:42.592Z,101426.59
2022-08-30T00:08:48.957Z,101427.50
2022-08-30T00:10:53.816Z,101400.22
2022-08-30T00:12:58.415Z,101422.28
2022-08-30T00:15:02.023Z,101424.09
2022-08-30T00:17:06.021Z,101433.84
2022-08-30T00:19:09.506Z,101408.22
2022-08-30T00:21:13.263Z,101420.56
2022-08-30T00:23:17.544Z,101428.53
2022-08-30T00:25:21.726Z,101425.94
2022-08-30T00:27:27.531Z,101425.94
2022-08-30T00:29:31.038Z,101435.63
2022-08-30T00:31:34.642Z,101429.44
2022-08-30T00:33:38.310Z,101381.84
2022-08-30T00:35:42.939Z,101427.72
2022-08-30T00:37:46.332Z,101425.09
2022-08-30T00:39:50.218Z,101422.44
2022-08-30T00:41:53.754Z,101426.94
2022-08-30T00:43:59.349Z,101426.94
2022-08-30T00:46:07.738Z,101433.09
2022-08-30T00:48:11.369Z,101430.44
2022-08-30T00:50:17.233Z,101419.88
2022-08-30T00:52:23.587Z,101403.06
2022-08-30T00:54:27.215Z,101426.03
2022-08-30T00:56:31.920Z,101426.03
2022-08-30T00:58:38.274Z,101436.66
2022-08-30T01:00:43.340Z,101430.50
2022-08-30T01:02:49.774Z,101394.25
2022-08-30T01:04:55.683Z,101434.88
2022-08-30T01:07:00.402Z,101438.44
2022-08-30T01:09:05.900Z,101441.09
2022-08-30T01:11:10.219Z,101442.88
2022-08-30T01:13:15.404Z,101447.25
2022-08-30T01:15:19.560Z,101437.56
2022-08-30T01:17:26.735Z,101445.56
2022-08-30T01:19:37.556Z,101442.94
2022-08-30T01:21:47.467Z,101426.16
2022-08-30T01:23:55.055Z,101441.97
2022-08-30T01:25:59.893Z,101438.47
2022-08-30T01:28:07.590Z,101437.59
2022-08-30T01:30:12.460Z,101442.94
2022-08-30T01:32:21.232Z,101442.94
2022-08-30T01:34:25.585Z,101442.03
2022-08-30T01:36:29.491Z,101446.47
2022-08-30T01:38:37.896Z,101450.88
2022-08-30T01:40:42.818Z,101449.09
2022-08-30T01:42:46.701Z,101436.75
2022-08-30T01:44:50.354Z,101450.84
2022-08-30T01:46:53.798Z,101456.13
2022-08-30T01:48:59.272Z,101429.59
2022-08-30T01:51:02.718Z,101449.94
2022-08-30T01:53:06.592Z,101453.44
2022-08-30T01:55:11.243Z,101458.75
2022-08-30T01:57:19.563Z,101455.22
2022-08-30T01:59:23.050Z,101441.97
2022-08-30T02:01:29.809Z,101456.09
2022-08-30T02:03:37.284Z,101432.28
2022-08-30T02:05:40.918Z,101452.63
2022-08-30T02:07:44.519Z,101456.16
2022-08-30T02:09:48.060Z,101433.16
2022-08-30T02:11:51.899Z,101459.69
2022-08-30T02:13:56.986Z,101430.53
2022-08-30T02:16:01.537Z,101452.63
2022-08-30T02:18:05.947Z,101449.09
2022-08-30T02:20:10.853Z,101453.53
2022-08-30T02:22:14.496Z,101442.06
2022-08-30T02:24:17.917Z,101450.88
2022-08-30T02:26:21.863Z,101450.00
2022-08-30T02:28:26.154Z,101397.81
2022-08-30T02:30:31.075Z,101454.31
2022-08-30T02:32:34.537Z,101451.66
2022-08-30T02:34:38.043Z,101445.50
2022-08-30T02:36:41.793Z,101451.72
2022-08-30T02:38:46.200Z,101431.38
2022-08-30T02:40:49.698Z,101446.44
2022-08-30T02:42:53.119Z,101441.13
2022-08-30T02:44:56.798Z,101444.66
2022-08-30T02:47:01.688Z,101434.94
2022-08-30T02:49:30.423Z,101436.69
2022-08-30T02:51:32.967Z,101426.09
2022-08-30T02:53:38.434Z,101435.81
2022-08-30T02:55:42.406Z,101422.50
2022-08-30T02:57:46.170Z,101430.44
2022-08-30T02:59:49.723Z,101431.28
2022-08-30T03:01:53.139Z,101412.78
2022-08-30T03:04:00.435Z,101428.72
2022-08-30T03:06:04.311Z,101398.69
2022-08-30T03:08:08.341Z,101399.59
2022-08-30T03:10:14.014Z,101426.97
2022-08-30T03:12:17.669Z,101429.63
2022-08-30T03:14:21.336Z,101431.41
2022-08-30T03:16:24.896Z,101427.84
2022-08-30T03:18:28.646Z,101425.16
2022-08-30T03:20:35.042Z,101418.94
2022-08-30T03:22:38.727Z,101365.03
2022-08-30T03:24:42.219Z,101426.91
2022-08-30T03:26:46.690Z,101433.06
2022-08-30T03:28:50.447Z,101428.66
2022-08-30T03:30:54.651Z,101431.25
2022-08-30T03:32:58.110Z,101430.34
2022-08-30T03:35:01.636Z,101409.03
2022-08-30T03:37:06.498Z,101421.47
2022-08-30T03:39:10.324Z,101421.50
2022-08-30T03:41:18.165Z,101431.28
2022-08-30T03:43:21.598Z,101416.31
2022-08-30T03:45:27.138Z,101379.25
2022-08-30T03:47:31.000Z,101426.03
2022-08-30T03:49:34.388Z,101422.50
2022-08-30T03:51:37.836Z,101421.56
2022-08-30T03:53:42.634Z,101419.75
2022-08-30T03:55:46.359Z,101388.78
2022-08-30T03:57:52.463Z,101423.31
2022-08-30T03:59:56.817Z,101426.88
2022-08-30T04:02:00.346Z,101411.88
2022-08-30T04:04:04.607Z,101417.19
2022-08-30T04:06:08.457Z,101410.16
2022-08-30T04:08:12.286Z,101404.88
2022-08-30T04:10:17.190Z,101411.94
2022-08-30T04:12:22.911Z,101413.72
2022-08-30T04:14:29.436Z,101417.25
2022-08-30T04:16:33.132Z,101408.44
2022-08-30T04:18:37.379Z,101418.13
2022-08-30T04:20:43.439Z,101418.13
2022-08-30T04:22:46.912Z,101425.19
2022-08-30T04:24:50.363Z,101426.09
2022-08-30T04:26:55.202Z,101428.69
2022-08-30T04:28:59.330Z,101440.97
2022-08-30T04:31:09.070Z,101428.50
2022-08-30T04:33:17.500Z,101427.63
2022-08-30T04:35:21.433Z,101446.19
2022-08-30T04:37:25.192Z,101437.44
2022-08-30T04:39:28.855Z,101434.78
2022-08-30T04:41:32.331Z,101427.75
2022-08-30T04:43:37.281Z,101424.25
2022-08-30T04:45:41.554Z,101414.53
2022-08-30T04:47:45.685Z,101440.16
2022-08-30T04:49:49.111Z,101438.38
2022-08-30T04:51:52.529Z,101437.50
2022-08-30T04:53:56.059Z,101432.16
2022-08-30T04:55:59.549Z,101450.72
2022-08-30T04:58:03.312Z,101444.56
2022-08-30T05:00:11.397Z,101445.44
2022-08-30T05:02:15.021Z,101447.19
2022-08-30T05:04:18.556Z,101450.75
2022-08-30T05:06:22.753Z,101454.28
2022-08-30T05:08:26.480Z,101461.38
2022-08-30T05:10:29.986Z,101437.50
2022-08-30T05:12:33.498Z,101461.34
2022-08-30T05:14:37.118Z,101459.56
2022-08-30T05:16:42.507Z,101465.78
2022-08-30T05:18:47.483Z,101481.63
2022-08-30T05:20:50.983Z,101453.38
2022-08-30T05:22:55.268Z,101471.06
2022-08-30T05:25:00.136Z,101475.47
2022-08-30T05:27:04.187Z,101475.50
2022-08-30T05:29:07.899Z,101453.44
2022-08-30T05:31:16.880Z,101465.75
2022-08-30T05:33:21.815Z,101427.59
2022-08-30T05:35:25.988Z,101418.69
2022-08-30T05:37:29.608Z,101473.41
2022-08-30T05:39:44.962Z,101476.84
2022-08-30T05:41:57.383Z,101475.19
2022-08-30T05:44:02.956Z,101466.41
2022-08-30T05:46:10.290Z,101466.47
2022-08-30T05:48:14.072Z,101467.41
2022-08-30T05:50:19.198Z,101464.84
2022-08-30T05:52:22.720Z,101463.03
2022-08-30T05:54:26.253Z,101478.09
2022-08-30T05:56:34.578Z,101476.34
2022-08-30T05:58:38.715Z,101483.41
2022-08-30T06:00:42.254Z,101482.53
2022-08-30T06:02:45.997Z,101479.91
2022-08-30T06:04:49.588Z,101479.06
2022-08-30T06:06:55.207Z,101467.59
2022-08-30T06:08:59.028Z,101471.13
2022-08-30T06:11:02.571Z,101473.75
2022-08-30T06:13:06.125Z,101477.38
2022-08-30T06:15:10.436Z,101466.75
2022-08-30T06:17:13.909Z,101464.13
2022-08-30T06:19:17.985Z,101474.69
2022-08-30T06:21:24.889Z,101460.56
2022-08-30T06:23:30.590Z,101465.00
2022-08-30T06:25:41.107Z,101463.25
2022-08-30T06:27:45.367Z,101445.59
2022-08-30T06:29:52.283Z,101451.75
2022-08-30T06:31:58.016Z,101457.06
2022-08-30T06:34:01.560Z,101464.97
2022-08-30T06:36:06.174Z,101466.72
2022-08-30T06:38:09.739Z,101465.00
2022-08-30T06:40:17.487Z,101466.75
2022-08-30T06:42:21.032Z,101467.63
2022-08-30T06:44:24.534Z,101461.38
2022-08-30T06:46:33.376Z,101441.94
2022-08-30T06:48:37.855Z,101461.34
2022-08-30T06:50:42.012Z,101438.41
2022-08-30T06:52:46.384Z,101468.38
2022-08-30T06:54:50.793Z,101464.00
2022-08-30T06:56:58.470Z,101460.31
2022-08-30T06:59:02.507Z,101456.66
2022-08-30T07:01:07.072Z,101460.25
2022-08-30T07:03:10.685Z,101463.72
2022-08-30T07:05:18.642Z,101468.22
2022-08-30T07:07:23.100Z,101463.88
2022-08-30T07:09:26.838Z,101456.78
2022-08-30T07:11:33.977Z,101463.75
2022-08-30T07:13:39.605Z,101465.41
2022-08-30T07:15:44.956Z,101471.63
2022-08-30T07:18:05.779Z,101455.78
2022-08-30T07:20:10.347Z,101470.81
2022-08-30T07:22:15.031Z,101465.44
2022-08-30T07:24:19.372Z,101470.63
2022-08-30T07:26:26.826Z,101473.28
2022-08-30T07:28:30.364Z,101477.75
2022-08-30T07:30:36.417Z,101470.53
2022-08-30T07:32:39.995Z,101456.38
2022-08-30T07:34:43.510Z,101463.31
2022-08-30T07:36:47.033Z,101477.38
2022-08-30T07:38:54.532Z,101471.16
2022-08-30T07:40:59.149Z,101471.97
2022-08-30T07:43:02.670Z,101474.59
2022-08-30T07:45:06.760Z,101470.09
2022-08-30T07:47:12.540Z,101476.22
2022-08-30T07:49:16.370Z,101476.34
2022-08-30T07:51:22.136Z,101480.94
2022-08-30T07:53:25.943Z,101480.13
2022-08-30T07:55:29.433Z,101481.91
2022-08-30T07:57:34.439Z,101488.91
2022-08-30T07:59:37.932Z,101481.59
2022-08-30T08:01:41.610Z,101480.75
2022-08-30T08:03:46.779Z,101480.00
2022-08-30T08:05:50.227Z,101476.50
2022-08-30T08:07:53.619Z,101484.41
2022-08-30T08:09:57.065Z,101480.75
2022-08-30T08:12:00.697Z,101486.00
2022-08-30T08:14:05.421Z,101481.63
2022-08-30T08:16:09.284Z,101490.38
2022-08-30T08:18:12.840Z,101485.78
2022-08-30T08:20:17.693Z,101479.44
2022-08-30T08:22:21.810Z,101489.34
2022-08-30T08:24:25.458Z,101492.81
2022-08-30T08:26:28.977Z,101486.41
2022-08-30T08:28:32.657Z,101480.97
2022-08-30T08:30:38.714Z,101490.53
2022-08-30T08:32:42.284Z,101485.94
2022-08-30T08:34:46.450Z,101493.03
2022-08-30T08:36:52.170Z,101486.88
2022-08-30T08:38:55.590Z,101485.09
2022-08-30T08:41:06.441Z,101471.13
2022-08-30T08:43:14.104Z,101478.88
2022-08-30T08:45:24.317Z,101475.13
2022-08-30T08:47:37.222Z,101478.66
2022-08-30T08:49:43.678Z,101473.91
2022-08-30T08:52:04.780Z,101481.06
2022-08-30T08:54:12.781Z,101477.47
2022-08-30T08:56:19.306Z,101478.38
2022-08-30T08:58:25.281Z,101477.72
2022-08-30T09:00:29.967Z,101471.72
2022-08-30T09:02:40.447Z,101471.53
2022-08-30T09:04:45.323Z,101465.19
2022-08-30T09:06:56.645Z,101465.19
2022-08-30T09:09:00.158Z,101466.75
2022-08-30T09:11:11.249Z,101466.56
2022-08-30T09:13:14.935Z,101458.34
2022-08-30T09:15:25.240Z,101462.78
2022-08-30T09:17:29.670Z,101460.00
2022-08-30T09:19:44.095Z,101458.44
2022-08-30T09:21:57.984Z,101459.13
2022-08-30T09:24:04.794Z,101456.19
2022-08-30T09:26:10.620Z,101459.56
2022-08-30T09:28:16.121Z,101462.94
2022-08-30T09:30:22.056Z,101463.69
2022-08-30T09:32:28.210Z,101452.91
2022-08-30T09:34:34.028Z,101457.34
2022-08-30T09:36:43.762Z,101449.91
2022-08-30T09:38:47.311Z,101454.56
2022-08-30T09:40:52.609Z,101449.88
2022-08-30T09:43:10.443Z,101447.66
2022-08-30T09:45:29.260Z,101441.84
2022-08-30T09:47:33.019Z,101449.63
2022-08-30T09:49:38.342Z,101437.63
2022-08-30T09:51:51.216Z,101441.69
2022-08-30T09:54:17.324Z,101432.50
2022-08-30T09:56:30.598Z,101444.53
2022-08-30T09:58:50.092Z,101435.16
2022-08-30T10:01:04.392Z,101439.06
2022-08-30T10:03:35.184Z,101440.03
2022-08-30T10:05:50.663Z,101434.75
2022-08-30T10:08:06.559Z,101430.22
2022-08-30T10:10:17.049Z,101435.75
2022-08-30T10:12:29.856Z,101430.22
2022-08-30T10:14:49.627Z,101435.16
2022-08-30T10:17:02.780Z,101425.81
2022-08-30T10:19:23.884Z,101429.91
2022-08-30T10:21:35.292Z,101444.69
2022-08-30T10:23:45.328Z,101384.19
2022-08-30T10:25:52.554Z,101437.88
2022-08-30T10:28:02.479Z,101420.75
2022-08-30T10:30:11.908Z,101437.28
2022-08-30T10:32:21.343Z,101437.03
2022-08-30T10:34:30.098Z,101436.84
2022-08-30T10:36:42.796Z,101442.13
2022-08-30T10:38:51.992Z,101421.19
2022-08-30T10:41:14.273Z,101425.88
2022-08-30T10:43:25.822Z,101429.00
2022-08-30T10:45:34.071Z,101425.06
2022-08-30T10:47:43.387Z,101420.38
2022-08-30T10:49:49.389Z,101422.69
2022-08-30T10:52:01.903Z,101410.50
2022-08-30T10:54:11.890Z,101420.34
2022-08-30T10:56:21.367Z,101401.41
2022-08-30T10:58:25.768Z,101417.41
2022-08-30T11:00:37.238Z,101409.75
2022-08-30T11:03:09.832Z,101420.31
2022-08-30T11:05:32.638Z,101411.56
2022-08-30T11:07:44.027Z,101415.59
2022-08-30T11:10:11.763Z,101420.69
2022-08-30T11:12:29.465Z,101415.28
2022-08-30T11:14:33.065Z,101416.28
2022-08-30T11:16:40.136Z,101419.72
2022-08-30T11:18:51.036Z,101412.34
2022-08-30T11:21:17.010Z,101417.09
2022-08-30T11:23:27.018Z,101420.22
2022-08-30T11:25:53.359Z,101406.84
2022-08-30T11:28:01.752Z,101397.75
2022-08-30T11:30:38.727Z,101407.38
2022-08-30T11:33:02.339Z,101399.38
2022-08-30T11:35:06.801Z,101398.81
2022-08-30T11:37:37.442Z,101407.53
2022-08-30T11:40:06.194Z,101402.16
2022-08-30T11:42:14.328Z,101398.41
2022-08-30T11:44:32.312Z,101395.81
2022-08-30T11:46:39.784Z,101363.44
2022-08-30T11:48:54.615Z,101399.16
2022-08-30T11:51:07.008Z,101411.69
2022-08-30T11:53:20.613Z,101407.97
2022-08-30T11:55:36.949Z,101396.69
2022-08-30T11:57:49.852Z,101396.03
2022-08-30T12:00:06.355Z,101400.38
2022-08-30T12:02:56.339Z,101381.94
2022-08-30T12:05:04.312Z,101384.31
2022-08-30T12:07:10.439Z,101380.03
2022-08-30T12:10:04.743Z,101385.91
2022-08-30T12:12:10.961Z,101396.38
2022-08-30T12:14:51.895Z,101387.59
2022-08-30T12:17:10.530Z,101383.16
2022-08-30T12:19:18.751Z,101384.03
2022-08-30T12:21:33.438Z,101391.03
2022-08-30T12:23:55.342Z,101377.16
2022-08-30T12:26:20.197Z,101366.81
2022-08-30T12:28:26.953Z,101371.91
2022-08-30T12:30:30.405Z,101376.91
2022-08-30T12:32:35.412Z,101376.94
2022-08-30T12:34:53.088Z,101376.25
2022-08-30T12:37:03.047Z,101382.53
2022-08-30T12:39:10.497Z,101378.13
2022-08-30T12:41:22.613Z,101376.78
2022-08-30T12:43:40.321Z,101376.59
2022-08-30T12:45:50.805Z,101368.34
2022-08-30T12:47:58.390Z,101366.94
2022-08-30T12:50:02.202Z,101371.06
2022-08-30T12:52:24.054Z,101380.25
2022-08-30T12:54:31.818Z,101366.28
2022-08-30T12:56:56.749Z,101351.88
2022-08-30T12:59:00.254Z,101352.53
2022-08-30T13:01:18.469Z,101355.25
2022-08-30T13:03:33.682Z,101362.25
2022-08-30T13:05:48.450Z,101356.63
2022-08-30T13:08:10.064Z,101357.66
2022-08-30T13:10:19.790Z,101352.00
2022-08-30T13:12:27.028Z,101358.03
2022-08-30T13:14:37.815Z,101350.44
2022-08-30T13:16:45.047Z,101357.22
2022-08-30T13:18:50.385Z,101350.69
2022-08-30T13:21:10.934Z,101350.03
2022-08-30T13:23:24.333Z,101352.44
2022-08-30T13:25:28.923Z,101357.88
2022-08-30T13:27:32.785Z,101350.81
2022-08-30T13:29:40.482Z,101336.53
2022-08-30T13:31:46.403Z,101341.22
2022-08-30T13:33:53.891Z,101329.59
2022-08-30T13:35:57.575Z,101332.75
2022-08-30T13:38:03.298Z,101333.72
2022-08-30T13:40:09.899Z,101330.28
2022-08-30T13:44:38.637Z,101330.88
2022-08-30T13:46:54.136Z,101324.06
2022-08-30T13:49:01.636Z,101317.41
2022-08-30T13:51:05.271Z,101317.03
2022-08-30T13:53:10.132Z,101315.41
2022-08-30T13:55:15.015Z,101322.75
2022-08-30T13:59:49.769Z,101314.13
2022-08-30T14:02:11.687Z,101312.97
2022-08-30T14:04:15.785Z,101319.00
2022-08-30T14:06:32.749Z,101318.06
2022-08-30T14:08:48.513Z,101312.75
2022-08-30T14:10:57.253Z,101312.56
2022-08-30T14:13:08.396Z,101315.88
2022-08-30T14:15:12.567Z,101299.16
2022-08-30T14:17:16.411Z,101305.97
2022-08-30T14:19:20.200Z,101298.41
2022-08-30T14:21:24.373Z,101302.13
2022-08-30T14:23:28.789Z,101305.22
2022-08-30T14:25:32.347Z,101292.03
2022-08-30T14:27:37.629Z,101284.53
2022-08-30T14:29:41.109Z,101302.81
2022-08-30T14:31:48.663Z,101297.19
2022-08-30T14:33:52.376Z,101295.69
2022-08-30T14:35:55.842Z,101298.66
2022-08-30T14:37:59.745Z,101282.47
2022-08-30T14:40:03.702Z,101293.78
2022-08-30T14:42:11.343Z,101292.25
2022-08-30T14:44:24.943Z,101288.41
2022-08-30T14:46:28.462Z,101283.00
2022-08-30T14:48:31.985Z,101285.25
2022-08-30T14:50:35.484Z,101282.88
2022-08-30T14:52:38.984Z,101288.47
2022-08-30T14:54:43.075Z,101285.56
2022-08-30T14:56:47.210Z,101267.09
2022-08-30T14:58:51.788Z,101279.69
2022-08-30T15:00:56.805Z,101276.88
2022-08-30T15:03:00.257Z,101278.09
2022-08-30T15:05:04.060Z,101278.16
2022-08-30T15:07:13.628Z,101273.31
2022-08-30T15:09:23.114Z,101262.28
2022-08-30T15:11:27.705Z,101246.28
2022-08-30T15:13:33.980Z,101261.56
2022-08-30T15:15:37.572Z,101255.69
2022-08-30T15:17:43.666Z,101255.44
2022-08-30T15:19:49.273Z,101249.72
2022-08-30T15:21:53.655Z,101265.66
2022-08-30T15:23:58.008Z,101259.25
2022-08-30T15:26:01.596Z,101252.34
2022-08-30T15:28:05.059Z,101261.72
2022-08-30T15:30:11.035Z,101251.81
2022-08-30T15:32:14.687Z,101258.47
2022-08-30T15:34:27.968Z,101251.09
2022-08-30T15:36:31.915Z,101252.75
2022-08-30T15:38:36.000Z,101251.97
2022-08-30T15:40:40.158Z,101241.41
2022-08-30T15:42:45.145Z,101247.34
2022-08-30T15:44:52.281Z,101238.03
2022-08-30T15:46:55.941Z,101239.63
2022-08-30T15:49:02.487Z,101232.19
2022-08-30T15:51:07.469Z,101237.56
2022-08-30T15:53:13.247Z,101229.09
2022-08-30T15:55:16.840Z,101233.44
2022-08-30T15:57:20.310Z,101222.81
2022-08-30T15:59:23.729Z,101201.06
2022-08-30T16:01:30.549Z,101194.41
2022-08-30T16:03:35.802Z,101224.59
2022-08-30T16:05:41.367Z,101222.63
2022-08-30T16:07:46.750Z,101209.22
2022-08-30T16:09:50.309Z,101222.53
2022-08-30T16:11:54.217Z,101195.34
2022-08-30T16:13:58.931Z,101225.47
2022-08-30T16:16:02.975Z,101215.69
2022-08-30T16:18:06.659Z,101216.66
2022-08-30T16:20:11.919Z,101222.56
2022-08-30T16:22:15.852Z,101221.84
2022-08-30T16:24:27.476Z,101226.66
2022-08-30T16:26:33.408Z,101234.59
2022-08-30T16:28:37.414Z,101232.66
2022-08-30T16:30:42.325Z,101227.50
2022-08-30T16:32:49.641Z,101232.66
2022-08-30T16:34:53.362Z,101239.25
2022-08-30T16:36:59.662Z,101229.59
2022-08-30T16:39:04.985Z,101230.88
2022-08-30T16:41:21.063Z,101229.88
2022-08-30T16:43:25.471Z,101229.31
2022-08-30T16:45:34.257Z,101230.72
2022-08-30T16:47:38.133Z,101230.16
2022-08-30T16:49:42.236Z,101231.72
2022-08-30T16:51:46.075Z,101228.59
2022-08-30T16:53:49.882Z,101236.09
2022-08-30T16:55:54.200Z,101229.06
2022-08-30T16:57:59.558Z,101224.47
2022-08-30T17:00:06.089Z,101224.72
2022-08-30T17:02:16.676Z,101223.97
2022-08-30T17:04:20.586Z,101214.97
2022-08-30T17:06:24.035Z,101220.78
2022-08-30T17:08:27.524Z,101219.03
2022-08-30T17:10:33.425Z,101214.31
2022-08-30T17:12:37.081Z,101216.34
2022-08-30T17:14:42.200Z,101218.63
2022-08-30T17:16:47.303Z,101216.47
2022-08-30T17:18:51.653Z,101224.91
2022-08-30T17:20:55.040Z,101236.72
2022-08-30T17:22:59.205Z,101228.13
2022-08-30T17:25:06.637Z,101228.38
2022-08-30T17:27:10.790Z,101236.19
2022-08-30T17:29:14.204Z,101242.41
2022-08-30T17:31:20.846Z,101245.13
2022-08-30T17:33:24.298Z,101250.47
2022-08-30T17:35:28.104Z,101250.78
2022-08-30T17:37:31.655Z,101258.16
2022-08-30T17:39:35.548Z,101253.97
2022-08-30T17:41:39.837Z,101262.38
2022-08-30T17:43:44.811Z,101258.94
2022-08-30T17:45:48.517Z,101262.84
2022-08-30T17:47:53.583Z,101264.81
2022-08-30T17:49:57.754Z,101264.41
2022-08-30T17:52:02.388Z,101268.00
2022-08-30T17:54:06.271Z,101283.25
2022-08-30T17:56:11.262Z,101279.50
2022-08-30T17:58:14.813Z,101278.59
2022-08-30T18:00:20.062Z,101281.16
2022-08-30T18:02:30.054Z,101293.09
2022-08-30T18:04:35.142Z,101292.38
2022-08-30T18:06:39.752Z,101293.56
2022-08-30T18:08:43.411Z,101298.19
2022-08-30T18:10:46.934Z,101291.81
2022-08-30T18:12:50.290Z,101291.81
2022-08-30T18:14:54.074Z,101289.31
2022-08-30T18:17:00.663Z,101293.97
2022-08-30T18:19:05.035Z,101294.28
2022-08-30T18:21:15.924Z,101301.66
2022-08-30T18:23:19.348Z,101301.72
2022-08-30T18:25:27.764Z,101313.38
2022-08-30T18:27:31.263Z,101313.44
2022-08-30T18:29:35.072Z,101320.81
2022-08-30T18:31:38.615Z,101310.03
2022-08-30T18:33:42.347Z,101318.09
2022-08-30T18:35:48.487Z,101317.25
2022-08-30T18:37:53.447Z,101312.06
2022-08-30T18:39:56.858Z,101324.63
2022-08-30T18:42:01.931Z,101325.69
2022-08-30T18:44:26.558Z,101325.75
2022-08-30T18:46:30.395Z,101324.13
2022-08-30T18:48:35.691Z,101325.19
2022-08-30T18:50:41.728Z,101326.91
2022-08-30T18:52:45.301Z,101324.22
2022-08-30T18:54:52.889Z,101330.69
2022-08-30T18:56:56.776Z,101326.34
2022-08-30T18:59:00.184Z,101329.00
2022-08-30T19:01:04.295Z,101324.44
2022-08-30T19:03:07.794Z,101327.13
2022-08-30T19:05:11.906Z,101326.34
2022-08-30T19:07:18.221Z,101325.59
2022-08-30T19:09:21.827Z,101326.66
2022-08-30T19:11:27.629Z,101328.34
2022-08-30T19:13:31.573Z,101330.13
2022-08-30T19:15:36.471Z,101330.25
2022-08-30T19:17:43.611Z,101330.28
2022-08-30T19:19:52.065Z,101336.53
2022-08-30T19:21:55.851Z,101326.69
2022-08-30T19:23:59.479Z,101332.19
2022-08-30T19:26:03.073Z,101333.91
2022-08-30T19:28:08.221Z,101334.63
2022-08-30T19:30:20.600Z,101325.16
2022-08-30T19:32:28.036Z,101329.63
2022-08-30T19:34:31.443Z,101319.09
2022-08-30T19:36:34.982Z,101331.47
2022-08-30T19:38:38.440Z,101341.28
2022-08-30T19:40:41.936Z,101340.53
2022-08-30T19:42:48.935Z,101320.53
2022-08-30T19:44:54.113Z,101339.91
2022-08-30T19:47:01.847Z,101337.16
2022-08-30T19:49:08.465Z,101339.84
2022-08-30T19:51:14.598Z,101338.91
2022-08-30T19:53:19.141Z,101341.59
2022-08-30T19:55:29.845Z,101341.69
2022-08-30T19:57:33.957Z,101335.44
2022-08-30T19:59:37.424Z,101338.28
2022-08-30T20:01:42.243Z,101343.59
2022-08-30T20:03:49.397Z,101334.91
2022-08-30T20:05:55.404Z,101336.72
2022-08-30T20:07:59.134Z,101333.22
2022-08-30T20:10:05.345Z,101337.50
2022-08-30T20:12:09.415Z,101341.69
2022-08-30T20:14:13.541Z,101338.25
2022-08-30T20:16:17.510Z,101333.09
2022-08-30T20:18:22.749Z,101333.16
2022-08-30T20:20:26.436Z,101340.31
2022-08-30T20:22:32.232Z,101338.69
2022-08-30T20:26:44.965Z,101284.44
2022-08-30T20:28:48.307Z,101337.31
2022-08-30T20:30:52.701Z,101323.34
2022-08-30T20:32:56.256Z,101341.13
2022-08-30T20:35:01.186Z,101342.78
2022-08-30T20:37:06.083Z,101344.44
2022-08-30T20:39:10.103Z,101344.50
2022-08-30T20:41:16.727Z,101338.28
2022-08-30T20:43:23.542Z,101340.13
2022-08-30T20:45:28.743Z,101347.22
2022-08-30T20:47:36.618Z,101342.94
2022-08-30T20:49:39.983Z,101349.13
2022-08-30T20:51:44.893Z,101348.34
2022-08-30T20:53:48.318Z,101347.59
2022-08-30T20:55:51.748Z,101345.69
2022-08-30T20:57:55.104Z,101342.97
2022-08-30T20:59:59.904Z,101338.47
2022-08-30T21:02:03.641Z,101346.47
2022-08-30T21:04:08.072Z,101347.28
2022-08-30T21:06:12.237Z,101346.34
2022-08-30T21:08:18.617Z,101349.09
2022-08-30T21:10:23.617Z,101347.41
2022-08-30T21:12:27.435Z,101354.56
2022-08-30T21:14:30.807Z,101348.34
2022-08-30T21:16:35.084Z,101351.91
2022-08-30T21:18:38.709Z,101346.69
2022-08-30T21:20:42.536Z,101352.16
2022-08-30T21:22:45.903Z,101348.66
2022-08-30T21:24:51.043Z,101359.06
2022-08-30T21:26:55.585Z,101353.50
2022-08-30T21:28:59.445Z,101357.38
2022-08-30T21:31:08.448Z,101354.75
2022-08-30T21:33:11.854Z,101355.88
2022-08-30T21:35:32.613Z,101348.00
2022-08-30T21:37:36.270Z,101360.34
2022-08-30T21:39:39.739Z,101363.28
2022-08-30T21:41:44.912Z,101363.47
2022-08-30T21:43:48.759Z,101370.69
2022-08-30T21:45:53.559Z,101368.91
2022-08-30T21:47:57.251Z,101373.41
2022-08-30T21:50:00.797Z,101369.91
2022-08-30T21:52:04.795Z,101375.31
2022-08-30T21:54:09.726Z,101363.97
2022-08-30T21:56:20.782Z,101369.22
2022-08-30T21:58:26.862Z,101378.88
2022-08-30T22:00:30.241Z,101387.72
2022-08-30T22:02:34.041Z,101387.72
2022-08-30T22:04:37.482Z,101384.19
2022-08-30T22:06:47.986Z,101386.84
2022-08-30T22:08:51.738Z,101364.81
2022-08-30T22:10:56.475Z,101386.91
2022-08-30T22:12:59.911Z,101393.91
2022-08-30T22:15:06.148Z,101398.34
2022-08-30T22:17:11.012Z,101395.66
2022-08-30T22:19:14.642Z,101399.19
2022-08-30T22:21:20.708Z,101400.06
2022-08-30T22:23:24.131Z,101400.13
2022-08-30T22:25:27.667Z,101404.56
2022-08-30T22:27:31.915Z,101402.88
2022-08-30T22:29:35.342Z,101399.34
2022-08-30T22:31:41.563Z,101407.50
2022-08-30T22:33:47.000Z,101398.53
2022-08-30T22:35:50.450Z,101402.13
2022-08-30T22:37:53.905Z,101404.00
2022-08-30T22:39:57.271Z,101403.09
2022-08-30T22:42:00.734Z,101403.13
2022-08-30T22:44:05.239Z,101405.78
2022-08-30T22:46:08.717Z,101396.00
2022-08-30T22:48:13.649Z,101401.31
2022-08-30T22:50:17.182Z,101400.44
2022-08-30T22:52:25.430Z,101400.44
2022-08-30T22:54:30.869Z,101393.38
2022-08-30T22:56:35.742Z,101402.22
2022-08-30T22:58:39.402Z,101396.03
2022-08-30T23:00:48.061Z,101399.66
2022-08-30T23:02:58.886Z,101392.50
2022-08-30T23:05:04.720Z,101400.59
2022-08-30T23:07:08.269Z,101399.66
2022-08-30T23:09:11.927Z,101402.38
2022-08-30T23:11:16.099Z,101399.75
2022-08-30T23:13:19.734Z,101396.38
2022-08-30T23:15:23.798Z,101398.22
2022-08-30T23:17:27.489Z,101408.91
2022-08-30T23:19:35.200Z,101401.84
2022-08-30T23:21:40.345Z,101407.09
2022-08-30T23:24:01.529Z,101411.56
2022-08-30T23:26:22.424Z,101420.63
2022-08-30T23:28:43.379Z,101417.97
2022-08-30T23:31:04.458Z,101428.69
2022-08-30T23:33:25.699Z,101434.97
2022-08-30T23:35:46.884Z,101442.13
2022-08-30T23:38:08.989Z,101449.19
2022-08-30T23:40:31.622Z,101453.72
2022-08-30T23:42:52.861Z,101451.94
2022-08-30T23:45:13.817Z,101450.31
2022-08-30T23:47:35.553Z,101450.31
2022-08-30T23:49:56.777Z,101447.56
2022-08-30T23:52:17.432Z,101452.00
2022-08-30T23:54:40.303Z,101448.38
2022-08-30T23:57:01.191Z,101450.03
2022-08-30T23:59:22.155Z,101445.63
